createdAt,value
2018-08-18T00:02:00.975Z,86.61
2018-08-18T00:04:34.880Z,86.48
2018-08-18T00:07:05.854Z,87.12
2018-08-18T00:09:36.390Z,87.42
2018-08-18T00:12:06.841Z,87.96
2018-08-18T00:14:37.468Z,88.35
2018-08-18T00:17:08.730Z,87.62
2018-08-18T00:19:39.213Z,87.46
2018-08-18T00:22:09.838Z,88.43
2018-08-18T00:24:45.661Z,88.18
2018-08-18T00:27:16.300Z,88.34
2018-08-18T00:29:46.800Z,88.69
2018-08-18T00:32:17.355Z,89.21
2018-08-18T00:34:54.318Z,88.15
2018-08-18T00:37:26.155Z,88.60
2018-08-18T00:39:57.832Z,88.92
2018-08-18T00:42:28.267Z,88.79
2018-08-18T00:44:58.696Z,88.85
2018-08-18T00:47:29.301Z,89.15
2018-08-18T00:50:00.565Z,89.45
2018-08-18T00:52:31.485Z,89.05
2018-08-18T00:55:01.991Z,88.97
2018-08-18T00:57:33.696Z,88.70
2018-08-18T01:00:04.315Z,89.06
2018-08-18T01:02:34.918Z,88.99
2018-08-18T01:05:06.130Z,88.48
2018-08-18T01:07:37.114Z,88.26
2018-08-18T01:10:07.654Z,87.95
2018-08-18T01:12:38.569Z,88.14
2018-08-18T01:15:10.446Z,88.13
2018-08-18T01:17:41.090Z,87.56
2018-08-18T01:20:12.353Z,87.54
2018-08-18T01:22:47.364Z,88.17
2018-08-18T01:25:18.584Z,88.07
2018-08-18T01:27:54.295Z,88.58
2018-08-18T01:30:25.669Z,88.70
2018-08-18T01:32:57.003Z,88.69
2018-08-18T01:35:27.563Z,89.08
2018-08-18T01:37:58.058Z,89.08
2018-08-18T01:40:28.556Z,89.09
2018-08-18T01:42:58.964Z,89.53
2018-08-18T01:45:29.532Z,89.28
2018-08-18T01:48:00.183Z,89.24
2018-08-18T01:50:31.117Z,89.59
2018-08-18T01:53:01.813Z,89.31
2018-08-18T01:55:33.224Z,89.31
2018-08-18T01:58:04.199Z,89.45
2018-08-18T02:00:34.603Z,89.72
2018-08-18T02:03:05.352Z,89.59
2018-08-18T02:05:35.655Z,89.78
2018-08-18T02:08:06.106Z,90.38
2018-08-18T02:10:36.903Z,90.71
2018-08-18T02:13:08.187Z,90.87
2018-08-18T02:15:38.570Z,91.67
2018-08-18T02:18:09.242Z,91.29
2018-08-18T02:20:39.698Z,91.69
2018-08-18T02:23:10.224Z,91.26
2018-08-18T02:25:40.760Z,91.18
2018-08-18T02:28:25.091Z,91.65
2018-08-18T02:30:56.130Z,91.67
2018-08-18T02:33:26.570Z,91.71
2018-08-18T02:35:57.028Z,92.00
2018-08-18T02:38:27.609Z,91.99
2018-08-18T02:40:58.401Z,91.98
2018-08-18T02:43:28.862Z,92.23
2018-08-18T02:46:09.609Z,92.43
2018-08-18T02:48:40.034Z,92.59
2018-08-18T02:51:10.868Z,92.51
2018-08-18T02:53:41.571Z,91.87
2018-08-18T02:56:12.289Z,91.98
2018-08-18T02:58:48.627Z,91.89
2018-08-18T03:01:19.097Z,91.96
2018-08-18T03:03:49.528Z,91.66
2018-08-18T03:06:20.106Z,92.12
2018-08-18T03:08:50.897Z,92.51
2018-08-18T03:11:21.280Z,92.60
2018-08-18T03:13:53.193Z,92.76
2018-08-18T03:16:23.709Z,93.20
2018-08-18T03:18:55.459Z,93.49
2018-08-18T03:21:32.750Z,93.45
2018-08-18T03:24:18.871Z,93.08
2018-08-18T03:26:52.709Z,93.44
2018-08-18T03:29:25.362Z,93.46
2018-08-18T03:31:56.421Z,93.73
2018-08-18T03:34:26.878Z,92.90
2018-08-18T03:36:58.062Z,93.09
2018-08-18T03:39:33.648Z,93.38
2018-08-18T03:42:05.212Z,93.86
2018-08-18T03:44:42.884Z,93.88
2018-08-18T03:47:13.386Z,93.61
2018-08-18T03:49:43.805Z,93.88
2018-08-18T03:52:14.355Z,93.79
2018-08-18T03:54:44.720Z,93.92
2018-08-18T03:57:15.236Z,94.21
2018-08-18T03:59:46.022Z,94.20
2018-08-18T04:02:16.679Z,94.47
2018-08-18T04:04:48.185Z,94.82
2018-08-18T04:07:18.756Z,95.19
2018-08-18T04:09:49.596Z,94.87
2018-08-18T04:12:20.032Z,94.97
2018-08-18T04:14:50.450Z,94.95
2018-08-18T04:17:32.304Z,94.67
2018-08-18T04:20:02.724Z,94.80
2018-08-18T04:22:33.166Z,94.30
2018-08-18T04:25:03.648Z,94.36
2018-08-18T04:27:46.623Z,95.22
2018-08-18T04:30:21.888Z,94.66
2018-08-18T04:33:01.010Z,94.70
2018-08-18T04:35:32.310Z,94.14
2018-08-18T04:38:05.310Z,94.19
2018-08-18T04:40:37.832Z,94.20
2018-08-18T04:43:08.441Z,93.85
2018-08-18T04:45:38.807Z,94.09
2018-08-18T04:48:09.486Z,93.65
2018-08-18T04:50:40.178Z,93.42
2018-08-18T04:53:10.775Z,93.64
2018-08-18T04:55:41.352Z,93.55
2018-08-18T04:58:12.938Z,93.22
2018-08-18T05:00:44.136Z,92.97
2018-08-18T05:03:15.249Z,92.72
2018-08-18T05:05:45.912Z,92.77
2018-08-18T05:08:16.476Z,92.46
2018-08-18T05:10:47.174Z,92.70
2018-08-18T05:13:17.859Z,92.00
2018-08-18T05:15:48.277Z,90.24
2018-08-18T05:18:18.971Z,90.94
2018-08-18T05:20:51.113Z,89.93
2018-08-18T05:23:25.903Z,88.96
2018-08-18T05:25:56.736Z,88.17
2018-08-18T05:28:27.290Z,87.78
2018-08-18T05:30:58.223Z,88.22
2018-08-18T05:33:30.349Z,85.10
2018-08-18T05:36:01.329Z,82.88
2018-08-18T05:38:32.924Z,78.18
2018-08-18T05:41:04.584Z,75.86
2018-08-18T05:43:35.224Z,74.06
2018-08-18T05:46:06.434Z,72.02
2018-08-18T05:48:36.944Z,70.45
2018-08-18T05:51:08.018Z,68.85
2018-08-18T05:53:39.147Z,68.45
2018-08-18T05:56:10.427Z,66.92
2018-08-18T05:58:54.753Z,66.85
2018-08-18T06:01:37.656Z,65.44
2018-08-18T06:04:13.266Z,64.82
2018-08-18T06:06:45.153Z,63.82
2018-08-18T06:09:19.665Z,62.63
2018-08-18T06:11:50.546Z,63.00
2018-08-18T06:14:21.377Z,62.02
2018-08-18T06:16:52.304Z,61.36
2018-08-18T06:19:22.919Z,60.25
2018-08-18T06:21:54.566Z,59.86
2018-08-18T06:24:25.377Z,58.94
2018-08-18T06:26:55.990Z,58.92
2018-08-18T06:29:26.585Z,58.46
2018-08-18T06:32:04.794Z,58.05
2018-08-18T06:34:35.347Z,57.79
2018-08-18T06:37:06.619Z,56.92
2018-08-18T06:39:53.770Z,54.96
2018-08-18T06:42:37.717Z,53.22
2018-08-18T06:45:17.994Z,52.07
2018-08-18T06:47:48.841Z,51.43
2018-08-18T06:50:20.670Z,52.96
2018-08-18T06:52:51.289Z,52.43
2018-08-18T06:55:22.244Z,50.58
2018-08-18T06:57:55.053Z,49.33
2018-08-18T07:00:26.606Z,48.85
2018-08-18T07:02:57.292Z,48.81
2018-08-18T07:05:30.864Z,47.56
2018-08-18T07:08:02.004Z,48.47
2018-08-18T07:10:35.311Z,47.98
2018-08-18T07:13:10.199Z,47.67
2018-08-18T07:15:44.307Z,47.04
2018-08-18T07:18:17.107Z,46.07
2018-08-18T07:20:48.140Z,44.82
2018-08-18T07:23:18.830Z,44.03
2018-08-18T07:25:54.283Z,44.14
2018-08-18T07:28:25.881Z,43.29
2018-08-18T07:30:59.733Z,43.75
2018-08-18T07:33:33.180Z,42.62
2018-08-18T07:36:04.287Z,42.81
2018-08-18T07:38:38.009Z,42.90
2018-08-18T07:41:09.022Z,42.77
2018-08-18T07:43:39.788Z,40.85
2018-08-18T07:46:10.521Z,40.56
2018-08-18T07:48:41.376Z,39.44
2018-08-18T07:51:12.402Z,38.92
2018-08-18T07:53:43.393Z,38.35
2018-08-18T07:56:14.383Z,38.79
2018-08-18T07:58:45.167Z,38.50
2018-08-18T08:01:16.639Z,38.61
2018-08-18T08:03:47.807Z,37.52
2018-08-18T08:06:18.510Z,37.97
2018-08-18T08:08:49.880Z,37.47
2018-08-18T08:11:23.224Z,39.20
2018-08-18T08:13:55.048Z,37.91
2018-08-18T08:16:29.823Z,35.76
2018-08-18T08:19:00.967Z,35.80
2018-08-18T08:21:32.048Z,35.00
2018-08-18T08:24:05.141Z,34.04
2018-08-18T08:26:38.908Z,33.97
2018-08-18T08:29:10.634Z,34.08
2018-08-18T08:31:43.098Z,33.75
2018-08-18T08:34:16.083Z,32.40
2018-08-18T08:36:46.976Z,32.65
2018-08-18T08:39:18.178Z,33.35
2018-08-18T08:41:49.375Z,33.07
2018-08-18T08:44:20.285Z,31.94
2018-08-18T08:47:05.982Z,31.91
2018-08-18T08:49:36.823Z,31.23
2018-08-18T08:52:09.073Z,31.58
2018-08-18T08:54:41.294Z,32.94
2018-08-18T08:57:13.585Z,31.98
2018-08-18T08:59:44.519Z,31.74
2018-08-18T09:02:15.845Z,33.28
2018-08-18T09:04:47.833Z,32.17
2018-08-18T09:07:18.751Z,31.59
2018-08-18T09:09:49.439Z,32.22
2018-08-18T09:12:20.271Z,34.88
2018-08-18T09:14:51.164Z,32.06
2018-08-18T09:17:21.776Z,30.54
2018-08-18T09:19:52.238Z,29.46
2018-08-18T09:22:23.186Z,29.02
2018-08-18T09:24:53.959Z,28.11
2018-08-18T09:27:24.815Z,27.57
2018-08-18T09:29:56.557Z,28.07
2018-08-18T09:32:28.602Z,27.46
2018-08-18T09:34:59.461Z,29.87
2018-08-18T09:37:30.251Z,28.85
2018-08-18T09:40:01.059Z,27.44
2018-08-18T09:42:31.693Z,26.59
2018-08-18T09:45:02.603Z,26.65
2018-08-18T09:47:33.487Z,27.40
2018-08-18T09:50:05.424Z,28.40
2018-08-18T09:52:36.241Z,27.42
2018-08-18T09:55:06.985Z,26.79
2018-08-18T09:57:37.791Z,27.09
2018-08-18T10:00:13.053Z,26.96
2018-08-18T10:02:44.040Z,27.76
2018-08-18T10:05:14.832Z,28.02
2018-08-18T10:07:47.865Z,27.71
2018-08-18T10:10:19.114Z,30.32
2018-08-18T10:12:49.844Z,30.11
2018-08-18T10:15:21.000Z,32.22
2018-08-18T10:17:52.308Z,31.72
2018-08-18T10:20:24.037Z,33.85
2018-08-18T10:22:54.939Z,33.10
2018-08-18T10:25:27.261Z,33.66
2018-08-18T10:27:58.385Z,31.22
2018-08-18T10:30:30.122Z,28.38
2018-08-18T10:33:02.321Z,26.64
2018-08-18T10:35:33.535Z,25.02
2018-08-18T10:38:06.664Z,24.36
2018-08-18T10:40:38.848Z,22.14
2018-08-18T10:43:10.236Z,22.52
2018-08-18T10:45:42.161Z,23.03
2018-08-18T10:48:12.619Z,23.61
2018-08-18T10:51:03.505Z,24.32
2018-08-18T10:53:35.739Z,24.09
2018-08-18T10:56:06.583Z,25.05
2018-08-18T10:58:53.706Z,24.16
2018-08-18T11:01:24.339Z,19.94
2018-08-18T11:03:55.586Z,19.35
2018-08-18T11:06:30.323Z,20.25
2018-08-18T11:09:03.434Z,20.40
2018-08-18T11:11:35.024Z,21.56
2018-08-18T11:14:06.492Z,19.88
2018-08-18T11:16:37.286Z,20.73
2018-08-18T11:19:09.196Z,19.61
2018-08-18T11:21:39.866Z,21.29
2018-08-18T11:24:13.133Z,22.68
2018-08-18T11:26:46.223Z,22.48
2018-08-18T11:29:20.672Z,21.71
2018-08-18T11:31:51.666Z,21.49
2018-08-18T11:34:22.821Z,22.96
2018-08-18T11:37:04.733Z,23.76
2018-08-18T11:39:36.525Z,23.97
2018-08-18T11:42:07.253Z,24.40
2018-08-18T11:44:38.377Z,24.71
2018-08-18T11:47:17.423Z,25.96
2018-08-18T11:49:50.601Z,24.56
2018-08-18T11:52:23.993Z,22.79
2018-08-18T11:54:56.835Z,21.04
2018-08-18T11:57:28.111Z,19.71
2018-08-18T11:59:59.352Z,19.58
2018-08-18T12:02:30.634Z,20.75
2018-08-18T12:05:06.578Z,21.75
2018-08-18T12:07:40.000Z,31.34
2018-08-18T12:10:14.283Z,36.46
2018-08-18T12:12:47.727Z,35.62
2018-08-18T12:15:18.686Z,40.08
2018-08-18T12:18:00.789Z,36.78
2018-08-18T12:20:35.516Z,34.86
2018-08-18T12:23:07.557Z,37.58
2018-08-18T12:25:38.926Z,34.74
2018-08-18T12:28:13.864Z,34.00
2018-08-18T12:30:45.225Z,32.29
2018-08-18T12:33:20.714Z,30.48
2018-08-18T12:35:52.341Z,30.62
2018-08-18T12:38:24.373Z,31.79
2018-08-18T12:40:55.805Z,31.65
2018-08-18T12:43:58.772Z,32.44
2018-08-18T12:46:37.610Z,30.88
2018-08-18T12:49:08.616Z,30.39
2018-08-18T12:51:39.493Z,27.16
2018-08-18T12:54:12.075Z,29.90
2018-08-18T12:56:44.634Z,28.83
2018-08-18T12:59:15.307Z,30.16
2018-08-18T13:01:47.414Z,29.23
2018-08-18T13:04:20.430Z,27.17
2018-08-18T13:06:54.807Z,28.45
2018-08-18T13:09:28.777Z,28.74
2018-08-18T13:12:02.785Z,31.34
2018-08-18T13:14:33.729Z,28.77
2018-08-18T13:17:05.014Z,30.56
2018-08-18T13:19:36.107Z,28.52
2018-08-18T13:22:07.796Z,29.09
2018-08-18T13:24:39.831Z,29.37
2018-08-18T13:27:17.348Z,27.81
2018-08-18T13:29:48.124Z,25.66
2018-08-18T13:32:18.870Z,24.67
2018-08-18T13:34:50.295Z,22.82
2018-08-18T13:37:21.482Z,23.31
2018-08-18T13:39:54.617Z,23.06
2018-08-18T13:42:27.141Z,26.98
2018-08-18T13:45:02.109Z,27.28
2018-08-18T13:47:33.763Z,23.89
2018-08-18T13:50:11.941Z,25.10
2018-08-18T13:52:48.003Z,25.82
2018-08-18T13:55:19.641Z,23.21
2018-08-18T13:57:50.623Z,24.27
2018-08-18T14:00:23.271Z,24.71
2018-08-18T14:02:54.141Z,32.17
2018-08-18T14:05:29.608Z,41.24
2018-08-18T14:08:04.565Z,44.45
2018-08-18T14:10:36.700Z,49.48
2018-08-18T14:13:07.448Z,46.72
2018-08-18T14:15:39.681Z,56.82
2018-08-18T14:18:12.501Z,57.94
2018-08-18T14:21:00.295Z,54.53
2018-08-18T14:23:32.216Z,54.61
2018-08-18T14:26:04.766Z,51.35
2018-08-18T14:28:37.265Z,46.50
2018-08-18T14:31:09.138Z,45.76
2018-08-18T14:33:43.338Z,55.16
2018-08-18T14:36:15.259Z,59.93
2018-08-18T14:38:48.576Z,59.88
2018-08-18T14:41:37.916Z,61.88
2018-08-18T14:44:10.215Z,61.36
2018-08-18T14:46:41.854Z,63.20
2018-08-18T14:49:12.774Z,63.13
2018-08-18T14:51:43.979Z,58.77
2018-08-18T14:54:16.011Z,56.91
2018-08-18T14:56:47.265Z,54.52
2018-08-18T14:59:22.186Z,55.51
2018-08-18T15:01:57.903Z,53.00
2018-08-18T15:04:29.958Z,53.58
2018-08-18T15:07:00.651Z,54.29
2018-08-18T15:09:46.227Z,52.13
2018-08-18T15:12:17.047Z,54.54
2018-08-18T15:14:48.334Z,51.10
2018-08-18T15:17:20.726Z,51.51
2018-08-18T15:19:55.144Z,52.35
2018-08-18T15:22:29.581Z,56.62
2018-08-18T15:25:00.909Z,54.36
2018-08-18T15:27:33.988Z,50.05
2018-08-18T15:30:16.557Z,49.68
2018-08-18T15:32:50.403Z,49.27
2018-08-18T15:35:22.224Z,48.74
2018-08-18T15:37:53.491Z,48.67
2018-08-18T15:40:26.465Z,53.35
2018-08-18T15:43:00.200Z,50.05
2018-08-18T15:45:37.157Z,49.65
2018-08-18T15:48:11.686Z,49.42
2018-08-18T15:50:44.791Z,50.93
2018-08-18T15:53:18.624Z,49.31
2018-08-18T15:55:52.317Z,49.42
2018-08-18T15:58:30.283Z,47.66
2018-08-18T16:01:07.596Z,49.00
2018-08-18T16:03:43.111Z,48.12
2018-08-18T16:06:27.825Z,48.45
2018-08-18T16:09:09.730Z,46.11
2018-08-18T16:11:50.792Z,48.82
2018-08-18T16:14:27.541Z,50.76
2018-08-18T16:17:05.828Z,49.09
2018-08-18T16:19:41.693Z,49.93
2018-08-18T16:22:23.599Z,48.38
2018-08-18T16:25:02.021Z,48.22
2018-08-18T16:27:39.400Z,49.47
2018-08-18T16:30:11.671Z,52.23
2018-08-18T16:32:42.958Z,53.23
2018-08-18T16:35:17.151Z,53.92
2018-08-18T16:37:48.730Z,53.70
2018-08-18T16:40:21.724Z,52.21
2018-08-18T16:42:55.288Z,53.13
2018-08-18T16:45:29.040Z,53.45
2018-08-18T16:48:00.915Z,53.55
2018-08-18T16:50:34.911Z,53.08
2018-08-18T16:53:10.487Z,52.70
2018-08-18T16:55:50.386Z,54.14
2018-08-18T16:58:52.311Z,58.43
2018-08-18T17:01:48.592Z,58.75
2018-08-18T17:04:25.787Z,59.85
2018-08-18T17:07:00.044Z,59.47
2018-08-18T17:09:44.097Z,58.58
2018-08-18T17:12:30.709Z,54.94
2018-08-18T17:15:06.483Z,52.69
2018-08-18T17:17:40.181Z,52.03
2018-08-18T17:20:13.188Z,56.67
2018-08-18T17:22:49.491Z,57.42
2018-08-18T17:25:23.187Z,58.53
2018-08-18T17:27:54.998Z,58.55
2018-08-18T17:30:28.187Z,55.58
2018-08-18T17:32:59.884Z,56.72
2018-08-18T17:35:37.886Z,56.25
2018-08-18T17:38:11.239Z,55.92
2018-08-18T17:40:47.776Z,56.46
2018-08-18T17:43:21.576Z,60.69
2018-08-18T17:45:56.272Z,61.13
2018-08-18T17:48:30.181Z,61.49
2018-08-18T17:51:03.980Z,60.46
2018-08-18T17:53:36.875Z,60.60
2018-08-18T17:56:11.764Z,60.85
2018-08-18T17:58:42.547Z,61.47
2018-08-18T18:01:15.009Z,62.63
2018-08-18T18:03:46.321Z,63.80
2018-08-18T18:06:18.183Z,64.70
2018-08-18T18:08:49.745Z,65.51
2018-08-18T18:11:21.361Z,66.72
2018-08-18T18:13:53.333Z,67.35
2018-08-18T18:16:30.833Z,66.13
2018-08-18T18:19:03.325Z,66.27
2018-08-18T18:21:34.673Z,66.13
2018-08-18T18:24:10.234Z,66.35
2018-08-18T18:26:47.042Z,67.94
2018-08-18T18:29:22.960Z,66.94
2018-08-18T18:31:55.380Z,65.59
2018-08-18T18:34:27.213Z,64.69
2018-08-18T18:36:58.801Z,65.44
2018-08-18T18:39:49.459Z,65.87
2018-08-18T18:42:25.415Z,67.47
2018-08-18T18:44:58.061Z,66.75
2018-08-18T18:47:31.151Z,67.70
2018-08-18T18:50:09.082Z,67.14
2018-08-18T18:52:44.936Z,66.63
2018-08-18T18:55:20.986Z,67.35
2018-08-18T18:58:08.240Z,67.43
2018-08-18T19:00:54.419Z,67.84
2018-08-18T19:03:26.369Z,68.76
2018-08-18T19:05:59.760Z,69.36
2018-08-18T19:08:33.743Z,69.01
2018-08-18T19:11:09.466Z,68.78
2018-08-18T19:13:42.031Z,69.12
2018-08-18T19:16:17.561Z,69.58
2018-08-18T19:18:53.334Z,70.28
2018-08-18T19:21:35.656Z,70.56
2018-08-18T19:24:15.429Z,70.15
2018-08-18T19:26:56.100Z,70.29
2018-08-18T19:29:31.828Z,71.37
2018-08-18T19:32:05.531Z,71.69
2018-08-18T19:34:43.190Z,71.91
2018-08-18T19:37:21.384Z,72.44
2018-08-18T19:39:54.191Z,73.87
2018-08-18T19:42:26.257Z,75.40
2018-08-18T19:44:58.360Z,76.06
2018-08-18T19:47:35.558Z,76.43
2018-08-18T19:50:12.759Z,76.88
2018-08-18T19:52:45.525Z,75.96
2018-08-18T19:55:26.072Z,75.59
2018-08-18T19:58:08.882Z,75.02
2018-08-18T20:00:45.616Z,75.55
2018-08-18T20:03:21.083Z,76.02
2018-08-18T20:05:56.831Z,75.54
2018-08-18T20:08:29.225Z,75.46
2018-08-18T20:11:14.092Z,74.08
2018-08-18T20:13:47.688Z,74.54
2018-08-18T20:16:22.161Z,75.31
2018-08-18T20:18:56.245Z,76.01
2018-08-18T20:21:31.241Z,76.12
2018-08-18T20:24:03.620Z,76.54
2018-08-18T20:26:38.365Z,76.57
2018-08-18T20:29:10.806Z,76.31
2018-08-18T20:31:52.260Z,76.62
2018-08-18T20:34:25.742Z,76.67
2018-08-18T20:36:57.525Z,76.79
2018-08-18T20:39:31.094Z,77.28
2018-08-18T20:42:03.400Z,77.23
2018-08-18T20:44:34.873Z,77.41
2018-08-18T20:47:06.558Z,77.38
2018-08-18T20:49:38.992Z,77.87
2018-08-18T20:52:10.173Z,77.97
2018-08-18T20:54:42.055Z,78.08
2018-08-18T20:57:14.404Z,78.55
2018-08-18T20:59:45.628Z,78.85
2018-08-18T21:02:18.201Z,78.99
2018-08-18T21:04:54.260Z,79.22
2018-08-18T21:07:25.744Z,79.50
2018-08-18T21:09:58.172Z,79.56
2018-08-18T21:12:36.593Z,79.49
2018-08-18T21:15:07.290Z,79.77
2018-08-18T21:17:38.963Z,79.83
2018-08-18T21:20:16.972Z,79.23
2018-08-18T21:22:48.521Z,79.80
2018-08-18T21:25:19.477Z,78.71
2018-08-18T21:27:51.645Z,79.17
2018-08-18T21:30:23.230Z,79.65
2018-08-18T21:32:55.247Z,80.71
2018-08-18T21:35:26.011Z,81.19
2018-08-18T21:37:56.675Z,81.73
2018-08-18T21:40:28.177Z,81.99
2018-08-18T21:42:58.959Z,82.18
2018-08-18T21:45:35.303Z,82.33
2018-08-18T21:48:06.835Z,82.52
2018-08-18T21:50:37.607Z,82.21
2018-08-18T21:53:08.407Z,81.65
2018-08-18T21:55:39.119Z,82.01
2018-08-18T21:58:09.840Z,82.09
2018-08-18T22:00:42.665Z,83.07
2018-08-18T22:03:13.470Z,82.82
2018-08-18T22:05:44.369Z,82.70
2018-08-18T22:08:16.641Z,82.06
2018-08-18T22:10:52.603Z,82.29
2018-08-18T22:13:23.789Z,81.83
2018-08-18T22:15:55.004Z,81.97
2018-08-18T22:18:28.646Z,82.89
2018-08-18T22:20:59.215Z,82.79
2018-08-18T22:23:30.041Z,82.63
2018-08-18T22:26:01.898Z,82.60
2018-08-18T22:28:32.666Z,83.17
2018-08-18T22:31:03.502Z,83.52
2018-08-18T22:33:38.124Z,83.43
2018-08-18T22:36:08.895Z,84.96
2018-08-18T22:38:41.254Z,85.43
2018-08-18T22:41:11.922Z,86.35
2018-08-18T22:43:43.399Z,86.53
2018-08-18T22:46:14.094Z,86.85
2018-08-18T22:48:44.894Z,86.85
2018-08-18T22:51:15.586Z,87.12
2018-08-18T22:53:52.578Z,86.98
2018-08-18T22:56:23.872Z,87.00
2018-08-18T22:58:58.776Z,87.49
2018-08-18T23:01:29.547Z,87.41
2018-08-18T23:04:00.294Z,87.66
2018-08-18T23:06:36.548Z,87.87
2018-08-18T23:09:08.401Z,88.34
2018-08-18T23:11:39.066Z,87.77
2018-08-18T23:14:09.529Z,87.94
2018-08-18T23:16:40.048Z,88.17
2018-08-18T23:19:10.741Z,88.23
2018-08-18T23:21:41.092Z,88.61
2018-08-18T23:24:42.649Z,88.99
2018-08-18T23:27:13.254Z,87.78
2018-08-18T23:29:43.923Z,87.32
2018-08-18T23:32:25.092Z,87.19
2018-08-18T23:34:58.015Z,86.80
2018-08-18T23:37:28.605Z,86.61
2018-08-18T23:39:59.085Z,86.79
2018-08-18T23:42:30.444Z,86.32
2018-08-18T23:45:00.991Z,86.65
2018-08-18T23:47:31.677Z,85.85
2018-08-18T23:50:02.273Z,85.73
2018-08-18T23:52:38.005Z,85.49
2018-08-18T23:55:08.538Z,86.04
2018-08-18T23:57:39.115Z,87.62
